sensor_id;sensor_type;location;lat;lon;timestamp;P1;durP1;ratioP1;P2;durP2;ratioP2
62610;SDS011;48683;48.084;17.272;2023-03-08T00:01:15;56.15;;;27.17;;
62610;SDS011;48683;48.084;17.272;2023-03-08T00:03:42;54.95;;;26.77;;
62610;SDS011;48683;48.084;17.272;2023-03-08T00:06:10;54.08;;;27.63;;
62610;SDS011;48683;48.084;17.272;2023-03-08T00:08:38;56.80;;;26.52;;
62610;SDS011;48683;48.084;17.272;2023-03-08T00:11:07;58.65;;;26.33;;
62610;SDS011;48683;48.084;17.272;2023-03-08T00:13:34;51.25;;;26.42;;
62610;SDS011;48683;48.084;17.272;2023-03-08T00:16:04;50.50;;;26.25;;
62610;SDS011;48683;48.084;17.272;2023-03-08T00:18:31;55.20;;;26.90;;
62610;SDS011;48683;48.084;17.272;2023-03-08T00:21:02;60.13;;;27.52;;
62610;SDS011;48683;48.084;17.272;2023-03-08T00:23:37;44.90;;;24.17;;
62610;SDS011;48683;48.084;17.272;2023-03-08T00:26:03;54.22;;;25.40;;
62610;SDS011;48683;48.084;17.272;2023-03-08T00:28:29;51.40;;;25.77;;
62610;SDS011;48683;48.084;17.272;2023-03-08T00:30:55;50.20;;;25.60;;
62610;SDS011;48683;48.084;17.272;2023-03-08T00:33:26;53.55;;;24.08;;
62610;SDS011;48683;48.084;17.272;2023-03-08T00:36:02;53.95;;;25.67;;
62610;SDS011;48683;48.084;17.272;2023-03-08T00:38:41;48.33;;;24.45;;
62610;SDS011;48683;48.084;17.272;2023-03-08T00:41:07;50.10;;;25.55;;
62610;SDS011;48683;48.084;17.272;2023-03-08T00:43:33;55.08;;;25.83;;
62610;SDS011;48683;48.084;17.272;2023-03-08T00:45:58;49.47;;;24.13;;
62610;SDS011;48683;48.084;17.272;2023-03-08T00:48:23;55.88;;;26.73;;
62610;SDS011;48683;48.084;17.272;2023-03-08T00:50:49;55.85;;;24.13;;
62610;SDS011;48683;48.084;17.272;2023-03-08T00:53:15;53.97;;;26.00;;
62610;SDS011;48683;48.084;17.272;2023-03-08T00:55:50;53.78;;;26.58;;
62610;SDS011;48683;48.084;17.272;2023-03-08T00:58:19;50.15;;;25.30;;
62610;SDS011;48683;48.084;17.272;2023-03-08T01:00:45;55.45;;;25.55;;
62610;SDS011;48683;48.084;17.272;2023-03-08T01:03:11;52.92;;;25.83;;
62610;SDS011;48683;48.084;17.272;2023-03-08T01:05:47;57.78;;;25.92;;
62610;SDS011;48683;48.084;17.272;2023-03-08T01:08:17;54.85;;;25.45;;
62610;SDS011;48683;48.084;17.272;2023-03-08T01:10:47;58.40;;;27.00;;
62610;SDS011;48683;48.084;17.272;2023-03-08T01:13:13;58.10;;;26.50;;
62610;SDS011;48683;48.084;17.272;2023-03-08T01:15:39;58.45;;;27.38;;
62610;SDS011;48683;48.084;17.272;2023-03-08T01:18:04;65.13;;;27.20;;
62610;SDS011;48683;48.084;17.272;2023-03-08T01:20:30;50.88;;;24.00;;
62610;SDS011;48683;48.084;17.272;2023-03-08T01:22:56;48.40;;;24.17;;
62610;SDS011;48683;48.084;17.272;2023-03-08T01:25:21;58.13;;;26.92;;
62610;SDS011;48683;48.084;17.272;2023-03-08T01:27:47;54.00;;;26.23;;
62610;SDS011;48683;48.084;17.272;2023-03-08T01:30:12;51.97;;;24.13;;
62610;SDS011;48683;48.084;17.272;2023-03-08T01:32:38;52.33;;;25.27;;
62610;SDS011;48683;48.084;17.272;2023-03-08T01:35:03;50.13;;;25.70;;
62610;SDS011;48683;48.084;17.272;2023-03-08T01:37:32;59.75;;;25.20;;
62610;SDS011;48683;48.084;17.272;2023-03-08T01:39:58;50.97;;;24.90;;
62610;SDS011;48683;48.084;17.272;2023-03-08T01:42:24;49.97;;;24.92;;
62610;SDS011;48683;48.084;17.272;2023-03-08T01:44:53;47.80;;;23.80;;
62610;SDS011;48683;48.084;17.272;2023-03-08T01:47:28;50.85;;;25.73;;
62610;SDS011;48683;48.084;17.272;2023-03-08T01:50:00;45.72;;;24.10;;
62610;SDS011;48683;48.084;17.272;2023-03-08T01:52:34;48.42;;;22.98;;
62610;SDS011;48683;48.084;17.272;2023-03-08T01:55:03;43.10;;;23.10;;
62610;SDS011;48683;48.084;17.272;2023-03-08T02:00:20;45.03;;;23.55;;
62610;SDS011;48683;48.084;17.272;2023-03-08T02:02:53;48.83;;;22.92;;
62610;SDS011;48683;48.084;17.272;2023-03-08T02:05:22;49.40;;;23.05;;
62610;SDS011;48683;48.084;17.272;2023-03-08T02:07:48;42.38;;;23.10;;
62610;SDS011;48683;48.084;17.272;2023-03-08T02:10:13;44.72;;;22.80;;
62610;SDS011;48683;48.084;17.272;2023-03-08T02:12:40;44.58;;;21.88;;
62610;SDS011;48683;48.084;17.272;2023-03-08T02:15:06;45.45;;;22.35;;
62610;SDS011;48683;48.084;17.272;2023-03-08T02:17:38;44.08;;;23.23;;
62610;SDS011;48683;48.084;17.272;2023-03-08T02:22:45;44.08;;;22.40;;
62610;SDS011;48683;48.084;17.272;2023-03-08T02:27:41;46.45;;;22.55;;
62610;SDS011;48683;48.084;17.272;2023-03-08T02:30:08;47.25;;;23.15;;
62610;SDS011;48683;48.084;17.272;2023-03-08T02:32:35;44.95;;;23.95;;
62610;SDS011;48683;48.084;17.272;2023-03-08T02:35:00;41.13;;;23.40;;
62610;SDS011;48683;48.084;17.272;2023-03-08T02:37:26;43.25;;;22.25;;
62610;SDS011;48683;48.084;17.272;2023-03-08T02:39:51;43.33;;;23.58;;
62610;SDS011;48683;48.084;17.272;2023-03-08T02:42:17;41.25;;;22.02;;
62610;SDS011;48683;48.084;17.272;2023-03-08T02:44:42;42.22;;;22.35;;
62610;SDS011;48683;48.084;17.272;2023-03-08T02:47:07;39.88;;;22.20;;
62610;SDS011;48683;48.084;17.272;2023-03-08T02:49:33;42.55;;;22.40;;
62610;SDS011;48683;48.084;17.272;2023-03-08T02:51:58;40.35;;;21.10;;
62610;SDS011;48683;48.084;17.272;2023-03-08T02:54:24;41.92;;;21.60;;
62610;SDS011;48683;48.084;17.272;2023-03-08T02:56:49;43.92;;;22.15;;
62610;SDS011;48683;48.084;17.272;2023-03-08T02:59:15;43.45;;;20.85;;
62610;SDS011;48683;48.084;17.272;2023-03-08T03:01:40;37.30;;;20.98;;
62610;SDS011;48683;48.084;17.272;2023-03-08T03:04:05;37.45;;;20.33;;
62610;SDS011;48683;48.084;17.272;2023-03-08T03:06:31;38.92;;;20.50;;
62610;SDS011;48683;48.084;17.272;2023-03-08T03:08:56;35.97;;;20.23;;
62610;SDS011;48683;48.084;17.272;2023-03-08T03:11:22;38.05;;;20.30;;
62610;SDS011;48683;48.084;17.272;2023-03-08T03:13:52;38.95;;;21.38;;
62610;SDS011;48683;48.084;17.272;2023-03-08T03:16:19;37.47;;;21.15;;
62610;SDS011;48683;48.084;17.272;2023-03-08T03:18:44;37.15;;;21.02;;
62610;SDS011;48683;48.084;17.272;2023-03-08T03:21:11;33.97;;;19.83;;
62610;SDS011;48683;48.084;17.272;2023-03-08T03:23:38;33.72;;;18.45;;
62610;SDS011;48683;48.084;17.272;2023-03-08T03:26:09;33.53;;;19.85;;
62610;SDS011;48683;48.084;17.272;2023-03-08T03:28:36;35.45;;;19.75;;
62610;SDS011;48683;48.084;17.272;2023-03-08T03:31:06;35.00;;;19.00;;
62610;SDS011;48683;48.084;17.272;2023-03-08T03:33:32;34.33;;;19.85;;
62610;SDS011;48683;48.084;17.272;2023-03-08T03:35:58;35.15;;;18.83;;
62610;SDS011;48683;48.084;17.272;2023-03-08T03:38:23;31.67;;;17.35;;
62610;SDS011;48683;48.084;17.272;2023-03-08T03:40:49;31.55;;;16.95;;
62610;SDS011;48683;48.084;17.272;2023-03-08T03:43:14;32.80;;;17.77;;
62610;SDS011;48683;48.084;17.272;2023-03-08T03:45:40;32.38;;;17.27;;
62610;SDS011;48683;48.084;17.272;2023-03-08T03:48:05;29.27;;;17.23;;
62610;SDS011;48683;48.084;17.272;2023-03-08T03:50:30;32.53;;;18.20;;
62610;SDS011;48683;48.084;17.272;2023-03-08T03:52:56;29.35;;;16.08;;
62610;SDS011;48683;48.084;17.272;2023-03-08T03:55:21;35.30;;;16.83;;
62610;SDS011;48683;48.084;17.272;2023-03-08T03:57:46;29.88;;;16.38;;
62610;SDS011;48683;48.084;17.272;2023-03-08T04:00:12;26.30;;;15.63;;
62610;SDS011;48683;48.084;17.272;2023-03-08T04:02:38;25.83;;;14.82;;
62610;SDS011;48683;48.084;17.272;2023-03-08T04:05:03;23.00;;;14.05;;
62610;SDS011;48683;48.084;17.272;2023-03-08T04:07:29;27.63;;;15.30;;
62610;SDS011;48683;48.084;17.272;2023-03-08T04:09:54;27.13;;;15.02;;
62610;SDS011;48683;48.084;17.272;2023-03-08T04:12:20;24.65;;;13.80;;
62610;SDS011;48683;48.084;17.272;2023-03-08T04:14:45;27.95;;;15.55;;
62610;SDS011;48683;48.084;17.272;2023-03-08T04:17:10;24.52;;;15.07;;
62610;SDS011;48683;48.084;17.272;2023-03-08T04:19:36;24.10;;;15.10;;
62610;SDS011;48683;48.084;17.272;2023-03-08T04:22:01;25.45;;;14.75;;
62610;SDS011;48683;48.084;17.272;2023-03-08T04:24:27;23.60;;;14.65;;
62610;SDS011;48683;48.084;17.272;2023-03-08T04:26:52;26.60;;;14.82;;
62610;SDS011;48683;48.084;17.272;2023-03-08T04:29:17;28.23;;;15.75;;
62610;SDS011;48683;48.084;17.272;2023-03-08T04:31:43;25.70;;;14.88;;
62610;SDS011;48683;48.084;17.272;2023-03-08T04:34:08;23.10;;;14.65;;
62610;SDS011;48683;48.084;17.272;2023-03-08T04:36:33;25.15;;;13.32;;
62610;SDS011;48683;48.084;17.272;2023-03-08T04:39:00;24.88;;;13.85;;
62610;SDS011;48683;48.084;17.272;2023-03-08T04:41:25;24.52;;;14.23;;
62610;SDS011;48683;48.084;17.272;2023-03-08T04:43:52;23.45;;;12.35;;
62610;SDS011;48683;48.084;17.272;2023-03-08T04:46:20;22.98;;;14.18;;
62610;SDS011;48683;48.084;17.272;2023-03-08T04:48:47;21.98;;;12.88;;
62610;SDS011;48683;48.084;17.272;2023-03-08T04:51:14;24.27;;;13.45;;
62610;SDS011;48683;48.084;17.272;2023-03-08T04:53:40;22.48;;;13.05;;
62610;SDS011;48683;48.084;17.272;2023-03-08T04:56:08;24.63;;;12.77;;
62610;SDS011;48683;48.084;17.272;2023-03-08T04:58:34;18.92;;;11.13;;
62610;SDS011;48683;48.084;17.272;2023-03-08T05:01:07;18.50;;;11.60;;
62610;SDS011;48683;48.084;17.272;2023-03-08T05:03:36;18.73;;;10.65;;
62610;SDS011;48683;48.084;17.272;2023-03-08T05:06:02;19.17;;;10.73;;
62610;SDS011;48683;48.084;17.272;2023-03-08T05:08:27;18.35;;;10.48;;
62610;SDS011;48683;48.084;17.272;2023-03-08T05:10:56;12.05;;;7.95;;
62610;SDS011;48683;48.084;17.272;2023-03-08T05:13:24;18.20;;;9.30;;
62610;SDS011;48683;48.084;17.272;2023-03-08T05:15:53;15.85;;;9.45;;
62610;SDS011;48683;48.084;17.272;2023-03-08T05:18:19;14.82;;;9.27;;
62610;SDS011;48683;48.084;17.272;2023-03-08T05:20:51;15.50;;;9.73;;
62610;SDS011;48683;48.084;17.272;2023-03-08T05:23:37;15.45;;;9.80;;
62610;SDS011;48683;48.084;17.272;2023-03-08T05:26:03;17.45;;;9.80;;
62610;SDS011;48683;48.084;17.272;2023-03-08T05:28:30;16.33;;;8.88;;
62610;SDS011;48683;48.084;17.272;2023-03-08T05:31:04;17.35;;;9.70;;
62610;SDS011;48683;48.084;17.272;2023-03-08T05:33:31;15.02;;;8.93;;
62610;SDS011;48683;48.084;17.272;2023-03-08T05:35:57;16.48;;;10.15;;
62610;SDS011;48683;48.084;17.272;2023-03-08T05:38:23;17.85;;;10.50;;
62610;SDS011;48683;48.084;17.272;2023-03-08T05:40:49;18.35;;;10.30;;
62610;SDS011;48683;48.084;17.272;2023-03-08T05:43:15;17.42;;;11.05;;
62610;SDS011;48683;48.084;17.272;2023-03-08T05:45:41;17.00;;;10.30;;
62610;SDS011;48683;48.084;17.272;2023-03-08T05:48:06;15.80;;;9.88;;
62610;SDS011;48683;48.084;17.272;2023-03-08T05:50:32;14.15;;;8.73;;
62610;SDS011;48683;48.084;17.272;2023-03-08T05:52:57;15.95;;;9.45;;
62610;SDS011;48683;48.084;17.272;2023-03-08T05:55:22;16.48;;;9.43;;
62610;SDS011;48683;48.084;17.272;2023-03-08T05:57:48;15.27;;;9.27;;
62610;SDS011;48683;48.084;17.272;2023-03-08T06:00:14;16.90;;;9.43;;
62610;SDS011;48683;48.084;17.272;2023-03-08T06:02:40;15.38;;;9.80;;
62610;SDS011;48683;48.084;17.272;2023-03-08T06:05:05;13.32;;;8.90;;
62610;SDS011;48683;48.084;17.272;2023-03-08T06:07:31;15.70;;;9.60;;
62610;SDS011;48683;48.084;17.272;2023-03-08T06:09:56;20.42;;;9.35;;
62610;SDS011;48683;48.084;17.272;2023-03-08T06:12:22;17.88;;;9.07;;
62610;SDS011;48683;48.084;17.272;2023-03-08T06:14:47;16.92;;;9.32;;
62610;SDS011;48683;48.084;17.272;2023-03-08T06:17:13;16.20;;;9.00;;
62610;SDS011;48683;48.084;17.272;2023-03-08T06:19:38;14.27;;;8.73;;
62610;SDS011;48683;48.084;17.272;2023-03-08T06:22:04;13.13;;;8.23;;
62610;SDS011;48683;48.084;17.272;2023-03-08T06:24:29;14.60;;;8.90;;
62610;SDS011;48683;48.084;17.272;2023-03-08T06:26:54;13.57;;;8.32;;
62610;SDS011;48683;48.084;17.272;2023-03-08T06:29:20;13.65;;;9.38;;
62610;SDS011;48683;48.084;17.272;2023-03-08T06:31:46;16.15;;;8.65;;
62610;SDS011;48683;48.084;17.272;2023-03-08T06:34:11;14.45;;;8.52;;
62610;SDS011;48683;48.084;17.272;2023-03-08T06:36:37;15.00;;;8.82;;
62610;SDS011;48683;48.084;17.272;2023-03-08T06:39:02;13.65;;;8.88;;
62610;SDS011;48683;48.084;17.272;2023-03-08T06:41:28;13.57;;;8.02;;
62610;SDS011;48683;48.084;17.272;2023-03-08T06:43:54;13.90;;;8.05;;
62610;SDS011;48683;48.084;17.272;2023-03-08T06:46:20;17.20;;;8.68;;
62610;SDS011;48683;48.084;17.272;2023-03-08T06:48:45;12.80;;;8.43;;
62610;SDS011;48683;48.084;17.272;2023-03-08T06:51:12;11.27;;;8.13;;
62610;SDS011;48683;48.084;17.272;2023-03-08T06:53:38;18.85;;;9.80;;
62610;SDS011;48683;48.084;17.272;2023-03-08T06:56:04;13.80;;;8.52;;
62610;SDS011;48683;48.084;17.272;2023-03-08T07:00:56;13.27;;;8.33;;
62610;SDS011;48683;48.084;17.272;2023-03-08T07:03:23;14.02;;;8.93;;
62610;SDS011;48683;48.084;17.272;2023-03-08T07:05:49;14.45;;;9.45;;
62610;SDS011;48683;48.084;17.272;2023-03-08T07:08:15;12.50;;;8.02;;
62610;SDS011;48683;48.084;17.272;2023-03-08T07:10:40;15.20;;;9.13;;
62610;SDS011;48683;48.084;17.272;2023-03-08T07:13:05;13.98;;;8.68;;
62610;SDS011;48683;48.084;17.272;2023-03-08T07:15:31;15.18;;;8.60;;
62610;SDS011;48683;48.084;17.272;2023-03-08T07:17:56;15.95;;;9.13;;
62610;SDS011;48683;48.084;17.272;2023-03-08T07:20:22;16.92;;;9.30;;
62610;SDS011;48683;48.084;17.272;2023-03-08T07:22:49;16.48;;;9.00;;
62610;SDS011;48683;48.084;17.272;2023-03-08T07:25:15;16.60;;;9.32;;
62610;SDS011;48683;48.084;17.272;2023-03-08T07:27:42;16.20;;;9.40;;
62610;SDS011;48683;48.084;17.272;2023-03-08T07:30:08;12.60;;;8.50;;
62610;SDS011;48683;48.084;17.272;2023-03-08T07:32:34;13.30;;;8.57;;
62610;SDS011;48683;48.084;17.272;2023-03-08T07:35:00;17.83;;;9.27;;
62610;SDS011;48683;48.084;17.272;2023-03-08T07:37:25;14.23;;;9.40;;
62610;SDS011;48683;48.084;17.272;2023-03-08T07:39:51;15.82;;;8.65;;
62610;SDS011;48683;48.084;17.272;2023-03-08T07:42:16;14.70;;;8.77;;
62610;SDS011;48683;48.084;17.272;2023-03-08T07:44:42;15.10;;;9.32;;
62610;SDS011;48683;48.084;17.272;2023-03-08T07:47:07;14.57;;;9.02;;
62610;SDS011;48683;48.084;17.272;2023-03-08T07:49:33;17.92;;;9.02;;
62610;SDS011;48683;48.084;17.272;2023-03-08T07:51:58;12.52;;;8.13;;
62610;SDS011;48683;48.084;17.272;2023-03-08T07:54:24;15.30;;;8.52;;
62610;SDS011;48683;48.084;17.272;2023-03-08T07:56:53;16.55;;;8.85;;
62610;SDS011;48683;48.084;17.272;2023-03-08T07:59:19;12.20;;;8.43;;
62610;SDS011;48683;48.084;17.272;2023-03-08T08:01:45;14.82;;;9.30;;
62610;SDS011;48683;48.084;17.272;2023-03-08T08:04:10;13.73;;;9.18;;
62610;SDS011;48683;48.084;17.272;2023-03-08T08:06:37;13.67;;;8.20;;
62610;SDS011;48683;48.084;17.272;2023-03-08T08:09:03;13.70;;;9.07;;
62610;SDS011;48683;48.084;17.272;2023-03-08T08:11:29;15.20;;;9.25;;
62610;SDS011;48683;48.084;17.272;2023-03-08T08:13:54;17.60;;;9.38;;
62610;SDS011;48683;48.084;17.272;2023-03-08T08:16:20;12.00;;;7.90;;
62610;SDS011;48683;48.084;17.272;2023-03-08T08:18:45;14.93;;;8.68;;
62610;SDS011;48683;48.084;17.272;2023-03-08T08:21:11;15.80;;;8.77;;
62610;SDS011;48683;48.084;17.272;2023-03-08T08:23:39;15.40;;;8.55;;
62610;SDS011;48683;48.084;17.272;2023-03-08T08:26:06;13.48;;;8.60;;
62610;SDS011;48683;48.084;17.272;2023-03-08T08:28:33;15.55;;;9.25;;
62610;SDS011;48683;48.084;17.272;2023-03-08T08:31:07;14.57;;;9.50;;
62610;SDS011;48683;48.084;17.272;2023-03-08T08:33:34;13.88;;;9.10;;
62610;SDS011;48683;48.084;17.272;2023-03-08T08:36:01;13.23;;;8.80;;
62610;SDS011;48683;48.084;17.272;2023-03-08T08:38:31;13.55;;;8.13;;
62610;SDS011;48683;48.084;17.272;2023-03-08T08:40:58;16.08;;;9.10;;
62610;SDS011;48683;48.084;17.272;2023-03-08T08:45:53;11.17;;;8.17;;
62610;SDS011;48683;48.084;17.272;2023-03-08T08:48:19;15.70;;;8.48;;
62610;SDS011;48683;48.084;17.272;2023-03-08T08:50:45;15.50;;;8.55;;
62610;SDS011;48683;48.084;17.272;2023-03-08T08:53:11;14.82;;;8.30;;
62610;SDS011;48683;48.084;17.272;2023-03-08T08:55:36;13.25;;;7.95;;
62610;SDS011;48683;48.084;17.272;2023-03-08T08:58:02;17.35;;;8.73;;
62610;SDS011;48683;48.084;17.272;2023-03-08T09:00:29;15.13;;;8.32;;
62610;SDS011;48683;48.084;17.272;2023-03-08T09:02:56;12.25;;;8.27;;
62610;SDS011;48683;48.084;17.272;2023-03-08T09:05:21;14.50;;;8.88;;
62610;SDS011;48683;48.084;17.272;2023-03-08T09:07:46;13.02;;;8.10;;
62610;SDS011;48683;48.084;17.272;2023-03-08T09:10:12;13.02;;;8.07;;
62610;SDS011;48683;48.084;17.272;2023-03-08T09:12:37;12.55;;;8.38;;
62610;SDS011;48683;48.084;17.272;2023-03-08T09:15:04;14.32;;;7.63;;
62610;SDS011;48683;48.084;17.272;2023-03-08T09:17:30;14.95;;;9.35;;
62610;SDS011;48683;48.084;17.272;2023-03-08T09:19:57;13.60;;;8.15;;
62610;SDS011;48683;48.084;17.272;2023-03-08T09:22:23;12.60;;;8.23;;
62610;SDS011;48683;48.084;17.272;2023-03-08T09:24:49;16.65;;;7.72;;
62610;SDS011;48683;48.084;17.272;2023-03-08T09:27:14;17.67;;;8.60;;
62610;SDS011;48683;48.084;17.272;2023-03-08T09:29:40;12.35;;;8.23;;
62610;SDS011;48683;48.084;17.272;2023-03-08T09:32:05;14.35;;;8.80;;
62610;SDS011;48683;48.084;17.272;2023-03-08T09:34:31;14.63;;;8.20;;
62610;SDS011;48683;48.084;17.272;2023-03-08T09:36:56;12.75;;;7.63;;
62610;SDS011;48683;48.084;17.272;2023-03-08T09:39:21;12.25;;;7.70;;
62610;SDS011;48683;48.084;17.272;2023-03-08T09:41:54;14.13;;;7.85;;
62610;SDS011;48683;48.084;17.272;2023-03-08T09:49:44;12.55;;;8.27;;
62610;SDS011;48683;48.084;17.272;2023-03-08T09:52:33;11.95;;;7.75;;
62610;SDS011;48683;48.084;17.272;2023-03-08T09:55:07;14.70;;;8.43;;
62610;SDS011;48683;48.084;17.272;2023-03-08T09:57:46;13.63;;;8.55;;
62610;SDS011;48683;48.084;17.272;2023-03-08T10:00:20;14.85;;;8.70;;
62610;SDS011;48683;48.084;17.272;2023-03-08T10:18:39;12.60;;;8.90;;
62610;SDS011;48683;48.084;17.272;2023-03-08T10:21:10;16.20;;;8.68;;
62610;SDS011;48683;48.084;17.272;2023-03-08T10:23:41;12.57;;;7.50;;
62610;SDS011;48683;48.084;17.272;2023-03-08T10:26:12;12.57;;;8.23;;
62610;SDS011;48683;48.084;17.272;2023-03-08T10:28:38;11.30;;;7.85;;
62610;SDS011;48683;48.084;17.272;2023-03-08T10:31:16;10.52;;;7.65;;
62610;SDS011;48683;48.084;17.272;2023-03-08T10:33:45;12.35;;;7.85;;
62610;SDS011;48683;48.084;17.272;2023-03-08T10:36:18;12.07;;;7.93;;
62610;SDS011;48683;48.084;17.272;2023-03-08T10:41:38;10.25;;;6.63;;
62610;SDS011;48683;48.084;17.272;2023-03-08T10:44:12;13.77;;;6.82;;
62610;SDS011;48683;48.084;17.272;2023-03-08T10:46:47;11.48;;;6.57;;
62610;SDS011;48683;48.084;17.272;2023-03-08T10:49:15;10.88;;;6.82;;
62610;SDS011;48683;48.084;17.272;2023-03-08T10:51:50;13.05;;;7.70;;
62610;SDS011;48683;48.084;17.272;2023-03-08T10:54:17;11.40;;;7.45;;
62610;SDS011;48683;48.084;17.272;2023-03-08T10:56:43;12.95;;;7.30;;
62610;SDS011;48683;48.084;17.272;2023-03-08T10:59:17;12.52;;;7.80;;
62610;SDS011;48683;48.084;17.272;2023-03-08T11:01:47;11.57;;;7.43;;
62610;SDS011;48683;48.084;17.272;2023-03-08T11:04:16;11.70;;;7.15;;
62610;SDS011;48683;48.084;17.272;2023-03-08T11:06:46;11.80;;;6.80;;
62610;SDS011;48683;48.084;17.272;2023-03-08T11:11:51;16.67;;;7.60;;
62610;SDS011;48683;48.084;17.272;2023-03-08T11:14:17;11.75;;;7.63;;
62610;SDS011;48683;48.084;17.272;2023-03-08T11:16:44;12.48;;;6.95;;
62610;SDS011;48683;48.084;17.272;2023-03-08T11:19:29;9.77;;;6.68;;
62610;SDS011;48683;48.084;17.272;2023-03-08T11:30:56;13.30;;;7.90;;
62610;SDS011;48683;48.084;17.272;2023-03-08T11:38:58;10.63;;;7.18;;
62610;SDS011;48683;48.084;17.272;2023-03-08T11:44:44;13.68;;;7.22;;
62610;SDS011;48683;48.084;17.272;2023-03-08T11:47:43;11.10;;;7.00;;
62610;SDS011;48683;48.084;17.272;2023-03-08T11:56:19;13.55;;;7.38;;
62610;SDS011;48683;48.084;17.272;2023-03-08T12:01:17;10.63;;;7.30;;
62610;SDS011;48683;48.084;17.272;2023-03-08T12:03:48;9.18;;;6.90;;
62610;SDS011;48683;48.084;17.272;2023-03-08T12:06:31;10.73;;;7.35;;
62610;SDS011;48683;48.084;17.272;2023-03-08T12:11:45;10.40;;;7.82;;
62610;SDS011;48683;48.084;17.272;2023-03-08T12:14:22;13.40;;;7.75;;
62610;SDS011;48683;48.084;17.272;2023-03-08T12:16:53;12.43;;;8.37;;
62610;SDS011;48683;48.084;17.272;2023-03-08T12:24:52;11.05;;;8.02;;
62610;SDS011;48683;48.084;17.272;2023-03-08T12:33:31;15.57;;;7.82;;
62610;SDS011;48683;48.084;17.272;2023-03-08T12:36:00;12.88;;;8.00;;
62610;SDS011;48683;48.084;17.272;2023-03-08T12:38:32;11.40;;;7.93;;
62610;SDS011;48683;48.084;17.272;2023-03-08T12:41:02;12.20;;;8.23;;
62610;SDS011;48683;48.084;17.272;2023-03-08T12:43:31;13.13;;;8.55;;
62610;SDS011;48683;48.084;17.272;2023-03-08T12:56:28;11.00;;;8.30;;
62610;SDS011;48683;48.084;17.272;2023-03-08T12:58:57;11.80;;;8.27;;
62610;SDS011;48683;48.084;17.272;2023-03-08T13:01:38;13.80;;;8.32;;
62610;SDS011;48683;48.084;17.272;2023-03-08T13:04:59;11.65;;;7.63;;
62610;SDS011;48683;48.084;17.272;2023-03-08T13:12:10;15.65;;;9.90;;
62610;SDS011;48683;48.084;17.272;2023-03-08T13:14:45;13.70;;;8.98;;
62610;SDS011;48683;48.084;17.272;2023-03-08T13:17:33;13.80;;;8.68;;
62610;SDS011;48683;48.084;17.272;2023-03-08T13:20:03;13.63;;;8.57;;
62610;SDS011;48683;48.084;17.272;2023-03-08T13:22:43;12.93;;;8.70;;
62610;SDS011;48683;48.084;17.272;2023-03-08T13:28:03;16.48;;;9.05;;
62610;SDS011;48683;48.084;17.272;2023-03-08T13:30:34;13.82;;;9.32;;
62610;SDS011;48683;48.084;17.272;2023-03-08T13:33:08;15.23;;;9.30;;
62610;SDS011;48683;48.084;17.272;2023-03-08T13:35:38;15.70;;;9.25;;
62610;SDS011;48683;48.084;17.272;2023-03-08T13:38:04;11.93;;;8.35;;
62610;SDS011;48683;48.084;17.272;2023-03-08T13:40:29;13.85;;;8.98;;
62610;SDS011;48683;48.084;17.272;2023-03-08T13:42:59;14.95;;;9.13;;
62610;SDS011;48683;48.084;17.272;2023-03-08T13:45:27;13.32;;;8.55;;
62610;SDS011;48683;48.084;17.272;2023-03-08T13:47:53;15.35;;;9.05;;
62610;SDS011;48683;48.084;17.272;2023-03-08T13:50:27;12.23;;;8.48;;
62610;SDS011;48683;48.084;17.272;2023-03-08T13:52:55;13.68;;;8.02;;
62610;SDS011;48683;48.084;17.272;2023-03-08T13:55:24;13.00;;;7.95;;
62610;SDS011;48683;48.084;17.272;2023-03-08T13:57:56;12.00;;;8.23;;
62610;SDS011;48683;48.084;17.272;2023-03-08T14:00:32;12.25;;;7.90;;
62610;SDS011;48683;48.084;17.272;2023-03-08T14:02:59;16.00;;;8.10;;
62610;SDS011;48683;48.084;17.272;2023-03-08T14:05:27;13.48;;;7.40;;
62610;SDS011;48683;48.084;17.272;2023-03-08T14:08:00;12.45;;;8.40;;
62610;SDS011;48683;48.084;17.272;2023-03-08T14:10:40;12.50;;;7.78;;
62610;SDS011;48683;48.084;17.272;2023-03-08T14:16:25;12.48;;;8.05;;
62610;SDS011;48683;48.084;17.272;2023-03-08T14:18:58;13.05;;;7.50;;
62610;SDS011;48683;48.084;17.272;2023-03-08T14:21:32;13.65;;;9.00;;
62610;SDS011;48683;48.084;17.272;2023-03-08T14:23:59;14.18;;;8.50;;
62610;SDS011;48683;48.084;17.272;2023-03-08T14:26:35;16.55;;;10.82;;
62610;SDS011;48683;48.084;17.272;2023-03-08T14:29:08;17.23;;;9.57;;
62610;SDS011;48683;48.084;17.272;2023-03-08T14:31:37;14.23;;;7.57;;
62610;SDS011;48683;48.084;17.272;2023-03-08T14:34:03;14.20;;;8.60;;
62610;SDS011;48683;48.084;17.272;2023-03-08T14:36:43;12.98;;;6.80;;
62610;SDS011;48683;48.084;17.272;2023-03-08T14:39:18;11.95;;;7.20;;
62610;SDS011;48683;48.084;17.272;2023-03-08T14:41:43;11.90;;;7.97;;
62610;SDS011;48683;48.084;17.272;2023-03-08T14:44:13;18.58;;;8.40;;
62610;SDS011;48683;48.084;17.272;2023-03-08T14:46:43;10.38;;;7.22;;
62610;SDS011;48683;48.084;17.272;2023-03-08T14:49:16;9.95;;;6.63;;
62610;SDS011;48683;48.084;17.272;2023-03-08T14:51:44;15.52;;;7.28;;
62610;SDS011;48683;48.084;17.272;2023-03-08T14:56:55;11.75;;;7.60;;
62610;SDS011;48683;48.084;17.272;2023-03-08T14:59:21;12.05;;;7.18;;
62610;SDS011;48683;48.084;17.272;2023-03-08T15:01:47;13.32;;;7.78;;
62610;SDS011;48683;48.084;17.272;2023-03-08T15:04:15;16.15;;;7.95;;
62610;SDS011;48683;48.084;17.272;2023-03-08T15:06:42;12.82;;;7.30;;
62610;SDS011;48683;48.084;17.272;2023-03-08T15:09:08;12.00;;;7.22;;
62610;SDS011;48683;48.084;17.272;2023-03-08T15:11:34;11.32;;;6.85;;
62610;SDS011;48683;48.084;17.272;2023-03-08T15:14:00;8.80;;;6.93;;
62610;SDS011;48683;48.084;17.272;2023-03-08T15:16:25;13.43;;;7.15;;
62610;SDS011;48683;48.084;17.272;2023-03-08T15:18:51;14.88;;;7.70;;
62610;SDS011;48683;48.084;17.272;2023-03-08T15:21:18;12.80;;;7.32;;
62610;SDS011;48683;48.084;17.272;2023-03-08T15:23:47;15.40;;;8.32;;
62610;SDS011;48683;48.084;17.272;2023-03-08T15:26:13;11.02;;;7.60;;
62610;SDS011;48683;48.084;17.272;2023-03-08T15:28:45;13.27;;;7.18;;
62610;SDS011;48683;48.084;17.272;2023-03-08T15:31:11;13.88;;;8.52;;
62610;SDS011;48683;48.084;17.272;2023-03-08T15:33:36;14.20;;;8.15;;
62610;SDS011;48683;48.084;17.272;2023-03-08T15:36:01;15.32;;;8.05;;
62610;SDS011;48683;48.084;17.272;2023-03-08T15:38:27;15.85;;;7.90;;
62610;SDS011;48683;48.084;17.272;2023-03-08T15:40:52;11.45;;;7.78;;
62610;SDS011;48683;48.084;17.272;2023-03-08T15:43:18;15.02;;;7.72;;
62610;SDS011;48683;48.084;17.272;2023-03-08T15:45:43;17.05;;;7.72;;
62610;SDS011;48683;48.084;17.272;2023-03-08T15:48:13;12.38;;;7.88;;
62610;SDS011;48683;48.084;17.272;2023-03-08T15:50:39;13.55;;;7.88;;
62610;SDS011;48683;48.084;17.272;2023-03-08T15:53:06;11.70;;;7.35;;
62610;SDS011;48683;48.084;17.272;2023-03-08T15:55:32;11.85;;;7.53;;
62610;SDS011;48683;48.084;17.272;2023-03-08T15:57:58;12.52;;;7.50;;
62610;SDS011;48683;48.084;17.272;2023-03-08T16:00:23;14.45;;;6.93;;
62610;SDS011;48683;48.084;17.272;2023-03-08T16:02:49;16.15;;;7.68;;
62610;SDS011;48683;48.084;17.272;2023-03-08T16:05:17;12.82;;;9.57;;